Cambridge — A8HD6 — position and weather

sailwx.info

Track history (hours):
 
Tides and Currents Weather Stations Pressure Air Temp Water Temp Dewpoint Dewpoint Depression Visibility Wind Speed Wind Dir Waves Ship Positions

Cambridge

Last reported at 2017-Sep-09 06:42 UTC. Time now 2017-Sep-26 18:33 UTC.
Position N 35°30' W 006°32'.
Warning: this ship's position is 17 days out of date.

Length 174 m; draft 7.4 m.

Type: Tanker. MMSI: 636012709.

Date/timePositionNaut miles runAvg speedWind from/ knotsBaromVisibWave heightAir tempDewpointWater temp
2017-Sep-09 06:42N 35°30' W 006°32'8 1.3
2017-Sep-08 23:56N 35°21' W 006°35'1 1.1
2017-Sep-08 22:52N 35°21' W 006°37'0 0.8
2017-Sep-08 22:30N 35°21' W 006°37'0 0.8
2017-Sep-08 22:00N 35°22' W 006°38'4 0.7
2017-Sep-08 16:13N 35°19' W 006°34'3 0.8
2017-Sep-08 13:03N 35°17' W 006°32'0 1.9
2017-Sep-08 13:00N 35°17' W 006°32'3 1.8
2017-Sep-08 11:14N 35°19' W 006°35'0 1.6
2017-Sep-08 11:00N 35°19' W 006°36'1 1.6
2017-Sep-08 10:19N 35°20' W 006°37'2 0.2
2017-Sep-08 01:53N 35°19' W 006°35'1 1.2
2017-Sep-08 01:27N 35°20' W 006°35'1 1.2
2017-Sep-08 00:56N 35°20' W 006°35'1 1.2
2017-Sep-08 00:29N 35°21' W 006°36'1 1.3
2017-Sep-08 00:00N 35°21' W 006°36'1 1.4
2017-Sep-07 23:29N 35°22' W 006°36'6 1.5
2017-Sep-07 19:26N 35°28' W 006°35'1 2.0
2017-Sep-07 18:48N 35°29' W 006°35'14 1.6
2017-Sep-07 10:12N 35°43' W 006°31'1 5.7
2017-Sep-07 10:00N 35°44' W 006°31'713.2
2017-Sep-07 09:31N 35°50' W 006°28'612.6
2017-Sep-07 09:01N 35°56' W 006°24'  
Track history (hours):
 
Tides and Currents Weather Stations Pressure Air Temp Water Temp Dewpoint Dewpoint Depression Visibility Wind Speed Wind Dir Waves Ship Positions

Cambridge

Last reported at 2017-Sep-09 06:42 UTC. Time now 2017-Sep-26 18:33 UTC.
Position N 35°30' W 006°32'.
Warning: this ship's position is 17 days out of date.

Length 174 m; draft 7.4 m.

Type: Tanker. MMSI: 636012709.

Date/timePositionNaut miles runAvg speedWind from/ knotsBaromVisibWave heightAir tempDewpointWater temp
2017-Sep-09 06:42N 35°30' W 006°32'8 1.3
2017-Sep-08 23:56N 35°21' W 006°35'1 1.1
2017-Sep-08 22:52N 35°21' W 006°37'0 0.8
2017-Sep-08 22:30N 35°21' W 006°37'0 0.8
2017-Sep-08 22:00N 35°22' W 006°38'4 0.7
2017-Sep-08 16:13N 35°19' W 006°34'3 0.8
2017-Sep-08 13:03N 35°17' W 006°32'0 1.9
2017-Sep-08 13:00N 35°17' W 006°32'3 1.8
2017-Sep-08 11:14N 35°19' W 006°35'0 1.6
2017-Sep-08 11:00N 35°19' W 006°36'1 1.6
2017-Sep-08 10:19N 35°20' W 006°37'2 0.2
2017-Sep-08 01:53N 35°19' W 006°35'1 1.2
2017-Sep-08 01:27N 35°20' W 006°35'1 1.2
2017-Sep-08 00:56N 35°20' W 006°35'1 1.2
2017-Sep-08 00:29N 35°21' W 006°36'1 1.3
2017-Sep-08 00:00N 35°21' W 006°36'1 1.4
2017-Sep-07 23:29N 35°22' W 006°36'6 1.5
2017-Sep-07 19:26N 35°28' W 006°35'1 2.0
2017-Sep-07 18:48N 35°29' W 006°35'14 1.6
2017-Sep-07 10:12N 35°43' W 006°31'1 5.7
2017-Sep-07 10:00N 35°44' W 006°31'713.2
2017-Sep-07 09:31N 35°50' W 006°28'612.6
2017-Sep-07 09:01N 35°56' W 006°24'  

Dump ship's entire track history